createdAt,value
2018-11-02T00:00:01.075Z,974.57
2018-11-02T00:01:01.021Z,974.59
2018-11-02T00:02:01.018Z,974.61
2018-11-02T00:03:01.042Z,974.55
2018-11-02T00:04:01.010Z,974.59
2018-11-02T00:05:01.007Z,974.57
2018-11-02T00:06:01.020Z,974.61
2018-11-02T00:07:01.006Z,974.61
2018-11-02T00:08:01.022Z,974.59
2018-11-02T00:09:00.989Z,974.54
2018-11-02T00:10:00.986Z,974.50
2018-11-02T00:11:00.990Z,974.45
2018-11-02T00:12:00.983Z,974.43
2018-11-02T00:13:01.001Z,974.42
2018-11-02T00:14:00.969Z,974.43
2018-11-02T00:15:00.971Z,974.39
2018-11-02T00:16:00.968Z,974.44
2018-11-02T00:17:00.961Z,974.43
2018-11-02T00:18:00.988Z,974.38
2018-11-02T00:19:00.951Z,974.34
2018-11-02T00:20:00.949Z,974.32
2018-11-02T00:21:00.946Z,974.39
2018-11-02T00:22:00.943Z,974.39
2018-11-02T00:23:00.963Z,974.40
2018-11-02T00:24:00.936Z,974.43
2018-11-02T00:25:00.923Z,974.41
2018-11-02T00:26:00.924Z,974.39
2018-11-02T00:27:00.921Z,974.38
2018-11-02T00:28:00.941Z,974.43
2018-11-02T00:29:00.913Z,974.52
2018-11-02T00:30:00.908Z,974.53
2018-11-02T00:31:00.900Z,974.52
2018-11-02T00:32:00.988Z,974.60
2018-11-02T00:33:00.919Z,974.66
2018-11-02T00:34:00.893Z,974.66
2018-11-02T00:35:00.887Z,974.63
2018-11-02T00:36:00.884Z,974.69
2018-11-02T00:37:00.882Z,974.63
2018-11-02T00:38:00.903Z,974.66
2018-11-02T00:39:00.875Z,974.63
2018-11-02T00:40:00.867Z,974.74
2018-11-02T00:41:00.885Z,974.67
2018-11-02T00:42:00.870Z,974.72
2018-11-02T00:43:00.881Z,974.75
2018-11-02T00:44:00.878Z,974.74
2018-11-02T00:45:00.841Z,974.79
2018-11-02T00:46:00.860Z,974.82
2018-11-02T00:47:00.837Z,974.80
2018-11-02T00:48:00.860Z,974.82
2018-11-02T00:49:00.855Z,974.90
2018-11-02T00:50:00.820Z,974.93
2018-11-02T00:51:00.842Z,975.00
2018-11-02T00:52:00.816Z,975.06
2018-11-02T00:53:00.841Z,975.08
2018-11-02T00:54:00.808Z,975.11
2018-11-02T00:55:00.819Z,975.09
2018-11-02T00:56:00.801Z,975.11
2018-11-02T00:57:00.795Z,975.12
2018-11-02T00:58:00.817Z,975.09
2018-11-02T00:59:00.784Z,975.06
2018-11-02T01:00:00.776Z,975.11
2018-11-02T01:01:00.776Z,975.08
2018-11-02T01:02:00.770Z,975.09
2018-11-02T01:03:00.796Z,975.09
2018-11-02T01:04:00.763Z,975.04
2018-11-02T01:05:00.762Z,975.05
2018-11-02T01:06:00.748Z,975.00
2018-11-02T01:07:00.747Z,974.99
2018-11-02T01:08:00.771Z,974.99
2018-11-02T01:09:00.767Z,975.01
2018-11-02T01:10:00.732Z,975.05
2018-11-02T01:11:00.725Z,975.08
2018-11-02T01:12:00.759Z,975.07
2018-11-02T01:13:00.748Z,975.14
2018-11-02T01:14:00.718Z,975.10
2018-11-02T01:15:00.711Z,975.08
2018-11-02T01:16:00.704Z,975.06
2018-11-02T01:17:00.696Z,975.07
2018-11-02T01:18:00.724Z,975.11
2018-11-02T01:19:00.694Z,975.12
2018-11-02T01:20:00.689Z,975.14
2018-11-02T01:21:00.684Z,975.14
2018-11-02T01:22:00.679Z,975.17
2018-11-02T01:23:00.701Z,975.25
2018-11-02T01:24:00.667Z,975.25
2018-11-02T01:25:00.664Z,975.25
2018-11-02T01:26:00.690Z,975.27
2018-11-02T01:27:00.657Z,975.30
2018-11-02T01:28:00.677Z,975.31
2018-11-02T01:29:00.648Z,975.36
2018-11-02T01:30:00.641Z,975.33
2018-11-02T01:31:00.636Z,975.37
2018-11-02T01:32:00.629Z,975.36
2018-11-02T01:33:00.664Z,975.33
2018-11-02T01:34:00.624Z,975.44
2018-11-02T01:35:00.620Z,975.44
2018-11-02T01:36:00.616Z,975.48
2018-11-02T01:37:00.616Z,975.48
2018-11-02T01:38:00.639Z,975.53
2018-11-02T01:39:00.601Z,975.52
2018-11-02T01:40:00.601Z,975.55
2018-11-02T01:41:00.601Z,975.57
2018-11-02T01:42:00.692Z,975.57
2018-11-02T01:43:00.622Z,975.61
2018-11-02T01:44:00.586Z,975.57
2018-11-02T01:45:00.581Z,975.58
2018-11-02T01:46:00.574Z,975.56
2018-11-02T01:47:00.575Z,975.58
2018-11-02T01:48:00.602Z,975.61
2018-11-02T01:49:00.566Z,975.57
2018-11-02T01:50:00.563Z,975.59
2018-11-02T01:51:00.558Z,975.52
2018-11-02T01:52:00.552Z,975.53
2018-11-02T01:53:00.578Z,975.54
2018-11-02T01:54:00.549Z,975.52
2018-11-02T01:55:00.549Z,975.58
2018-11-02T01:56:00.541Z,975.59
2018-11-02T01:57:00.534Z,975.62
2018-11-02T01:58:00.565Z,975.65
2018-11-02T01:59:00.529Z,975.66
2018-11-02T02:00:00.525Z,975.67
2018-11-02T02:01:00.517Z,975.67
2018-11-02T02:02:00.526Z,975.67
2018-11-02T02:03:00.546Z,975.68
2018-11-02T02:04:00.505Z,975.69
2018-11-02T02:05:00.505Z,975.69
2018-11-02T02:06:00.501Z,975.69
2018-11-02T02:07:00.525Z,975.72
2018-11-02T02:08:00.497Z,975.69
2018-11-02T02:09:00.494Z,975.72
2018-11-02T02:10:00.485Z,975.72
2018-11-02T02:11:00.489Z,975.65
2018-11-02T02:12:00.505Z,975.74
2018-11-02T02:13:00.508Z,975.68
2018-11-02T02:14:00.472Z,975.61
2018-11-02T02:15:00.473Z,975.59
2018-11-02T02:16:00.465Z,975.57
2018-11-02T02:17:00.495Z,975.62
2018-11-02T02:18:00.457Z,975.66
2018-11-02T02:19:00.468Z,975.57
2018-11-02T02:20:00.453Z,975.62
2018-11-02T02:21:00.450Z,975.61
2018-11-02T02:22:00.517Z,975.57
2018-11-02T02:23:00.443Z,975.59
2018-11-02T02:24:00.438Z,975.62
2018-11-02T02:25:00.435Z,975.64
2018-11-02T02:26:00.431Z,975.64
2018-11-02T02:27:00.459Z,975.55
2018-11-02T02:28:00.422Z,975.58
2018-11-02T02:29:00.418Z,975.62
2018-11-02T02:30:00.420Z,975.59
2018-11-02T02:31:00.413Z,975.52
2018-11-02T02:32:00.438Z,975.54
2018-11-02T02:33:00.405Z,975.57
2018-11-02T02:34:00.402Z,975.54
2018-11-02T02:35:00.393Z,975.54
2018-11-02T02:36:00.393Z,975.54
2018-11-02T02:37:00.420Z,975.59
2018-11-02T02:38:00.386Z,975.58
2018-11-02T02:39:00.388Z,975.58
2018-11-02T02:40:00.382Z,975.56
2018-11-02T02:41:00.377Z,975.56
2018-11-02T02:42:00.404Z,975.53
2018-11-02T02:43:00.367Z,975.56
2018-11-02T02:44:00.369Z,975.57
2018-11-02T02:45:00.362Z,975.53
2018-11-02T02:46:00.357Z,975.56
2018-11-02T02:47:00.384Z,975.45
2018-11-02T02:48:00.354Z,975.45
2018-11-02T02:49:00.353Z,975.48
2018-11-02T02:50:00.347Z,975.48
2018-11-02T02:51:00.338Z,975.45
2018-11-02T02:52:00.374Z,975.53
2018-11-02T02:53:00.329Z,975.52
2018-11-02T02:54:00.333Z,975.56
2018-11-02T02:55:00.325Z,975.61
2018-11-02T02:56:00.322Z,975.62
2018-11-02T02:57:00.349Z,975.67
2018-11-02T02:58:00.313Z,975.67
2018-11-02T02:59:00.346Z,975.68
2018-11-02T03:00:00.319Z,975.66
2018-11-02T03:01:00.310Z,975.68
2018-11-02T03:02:00.358Z,975.69
2018-11-02T03:03:00.298Z,975.68
2018-11-02T03:04:00.293Z,975.69
2018-11-02T03:05:00.290Z,975.72
2018-11-02T03:06:00.281Z,975.74
2018-11-02T03:07:00.310Z,975.76
2018-11-02T03:08:00.285Z,975.82
2018-11-02T03:09:00.308Z,975.81
2018-11-02T03:10:00.269Z,975.79
2018-11-02T03:11:00.540Z,975.75
2018-11-02T03:12:00.268Z,975.80
2018-11-02T03:13:00.283Z,975.86
2018-11-02T03:14:00.253Z,975.85
2018-11-02T03:15:00.279Z,975.88
2018-11-02T03:16:00.250Z,975.90
2018-11-02T03:17:00.272Z,975.93
2018-11-02T03:18:00.242Z,975.95
2018-11-02T03:19:00.238Z,975.93
2018-11-02T03:20:00.230Z,975.95
2018-11-02T03:21:00.250Z,975.97
2018-11-02T03:22:00.227Z,975.92
2018-11-02T03:23:00.226Z,975.95
2018-11-02T03:24:00.217Z,976.00
2018-11-02T03:25:00.217Z,975.95
2018-11-02T03:26:00.240Z,975.99
2018-11-02T03:27:00.214Z,976.02
2018-11-02T03:28:00.202Z,976.00
2018-11-02T03:29:00.198Z,976.04
2018-11-02T03:30:00.240Z,976.05
2018-11-02T03:31:00.187Z,976.06
2018-11-02T03:32:00.217Z,976.03
2018-11-02T03:33:00.183Z,976.08
2018-11-02T03:34:00.176Z,976.12
2018-11-02T03:35:00.175Z,976.14
2018-11-02T03:36:00.171Z,976.16
2018-11-02T03:37:00.196Z,976.15
2018-11-02T03:38:00.162Z,976.27
2018-11-02T03:39:00.158Z,976.25
2018-11-02T03:40:00.153Z,976.28
2018-11-02T03:41:00.174Z,976.27
2018-11-02T03:42:00.145Z,976.28
2018-11-02T03:43:00.142Z,976.27
2018-11-02T03:44:00.145Z,976.35
2018-11-02T03:45:00.135Z,976.41
2018-11-02T03:46:00.168Z,976.43
2018-11-02T03:47:00.130Z,976.47
2018-11-02T03:48:00.123Z,976.47
2018-11-02T03:49:00.125Z,976.53
2018-11-02T03:50:00.151Z,976.56
2018-11-02T03:51:00.113Z,976.59
2018-11-02T03:52:00.116Z,976.61
2018-11-02T03:53:00.107Z,976.53
2018-11-02T03:54:00.102Z,976.49
2018-11-02T03:55:00.128Z,976.51
2018-11-02T03:56:00.095Z,976.53
2018-11-02T03:57:00.107Z,976.51
2018-11-02T03:58:00.087Z,976.57
2018-11-02T03:59:00.080Z,976.61
2018-11-02T04:00:00.109Z,976.62
2018-11-02T04:01:00.079Z,976.58
2018-11-02T04:02:00.112Z,976.62
2018-11-02T04:03:00.068Z,976.58
2018-11-02T04:04:00.062Z,976.61
2018-11-02T04:05:00.086Z,976.60
2018-11-02T04:06:00.057Z,976.60
2018-11-02T04:07:00.051Z,976.58
2018-11-02T04:08:00.041Z,976.51
2018-11-02T04:09:00.043Z,976.53
2018-11-02T04:10:00.067Z,976.51
2018-11-02T04:11:00.039Z,976.48
2018-11-02T04:12:00.035Z,976.50
2018-11-02T04:13:00.026Z,976.52
2018-11-02T04:14:00.024Z,976.53
2018-11-02T04:15:00.046Z,976.58
2018-11-02T04:16:00.019Z,976.62
2018-11-02T04:17:00.010Z,976.67
2018-11-02T04:18:00.007Z,976.70
2018-11-02T04:19:00.032Z,976.67
2018-11-02T04:20:00.026Z,976.76
2018-11-02T04:20:59.995Z,976.78
2018-11-02T04:21:59.991Z,976.77
2018-11-02T04:22:59.992Z,976.80
2018-11-02T04:23:59.985Z,976.85
2018-11-02T04:25:00.004Z,976.82
2018-11-02T04:25:59.976Z,976.87
2018-11-02T04:26:59.973Z,976.95
2018-11-02T04:27:59.963Z,976.98
2018-11-02T04:28:59.966Z,976.96
2018-11-02T04:29:59.987Z,976.98
2018-11-02T04:31:00.009Z,976.93
2018-11-02T04:31:59.954Z,976.94
2018-11-02T04:32:59.947Z,976.92
2018-11-02T04:33:59.948Z,976.94
2018-11-02T04:34:59.970Z,976.88
2018-11-02T04:35:59.934Z,976.89
2018-11-02T04:36:59.926Z,976.89
2018-11-02T04:37:59.923Z,976.86
2018-11-02T04:38:59.919Z,976.88
2018-11-02T04:39:59.946Z,976.93
2018-11-02T04:40:59.918Z,976.91
2018-11-02T04:41:59.911Z,976.92
2018-11-02T04:42:59.903Z,976.96
2018-11-02T04:43:59.899Z,976.99
2018-11-02T04:44:59.921Z,976.91
2018-11-02T04:45:59.894Z,976.92
2018-11-02T04:46:59.886Z,976.94
2018-11-02T04:47:59.884Z,976.95
2018-11-02T04:48:59.880Z,976.96
2018-11-02T04:49:59.879Z,976.95
2018-11-02T04:50:59.958Z,976.94
2018-11-02T04:51:59.918Z,976.95
2018-11-02T04:52:59.865Z,976.94
2018-11-02T04:53:59.859Z,976.90
2018-11-02T04:54:59.856Z,976.90
2018-11-02T04:55:59.875Z,976.94
2018-11-02T04:56:59.847Z,976.98
2018-11-02T04:57:59.847Z,976.96
2018-11-02T04:58:59.839Z,976.99
2018-11-02T04:59:59.871Z,976.98
2018-11-02T05:00:59.833Z,976.98
2018-11-02T05:01:59.852Z,976.99
2018-11-02T05:02:59.825Z,977.01
2018-11-02T05:03:59.816Z,976.97
2018-11-02T05:04:59.827Z,976.99
2018-11-02T05:05:59.841Z,977.00
2018-11-02T05:06:59.803Z,976.99
2018-11-02T05:07:59.801Z,977.02
2018-11-02T05:08:59.800Z,977.02
2018-11-02T05:09:59.963Z,977.01
2018-11-02T05:10:59.815Z,977.06
2018-11-02T05:11:59.784Z,976.99
2018-11-02T05:12:59.780Z,977.07
2018-11-02T05:13:59.775Z,977.16
2018-11-02T05:14:59.800Z,977.18
2018-11-02T05:15:59.767Z,977.17
2018-11-02T05:16:59.763Z,977.25
2018-11-02T05:17:59.760Z,977.19
2018-11-02T05:18:59.753Z,977.28
2018-11-02T05:19:59.781Z,977.28
2018-11-02T05:20:59.761Z,977.28
2018-11-02T05:21:59.745Z,977.31
2018-11-02T05:22:59.740Z,977.31
2018-11-02T05:23:59.737Z,977.31
2018-11-02T05:24:59.756Z,977.32
2018-11-02T05:25:59.722Z,977.29
2018-11-02T05:26:59.718Z,977.36
2018-11-02T05:27:59.716Z,977.34
2018-11-02T05:28:59.748Z,977.36
2018-11-02T05:29:59.736Z,977.38
2018-11-02T05:30:59.711Z,977.47
2018-11-02T05:31:59.699Z,977.46
2018-11-02T05:32:59.697Z,977.46
2018-11-02T05:33:59.691Z,977.50
2018-11-02T05:34:59.724Z,977.60
2018-11-02T05:35:59.681Z,977.56
2018-11-02T05:36:59.679Z,977.56
2018-11-02T05:37:59.676Z,977.65
2018-11-02T05:38:59.676Z,977.68
2018-11-02T05:39:59.696Z,977.74
2018-11-02T05:40:59.663Z,977.80
2018-11-02T05:41:59.697Z,977.85
2018-11-02T05:42:59.657Z,977.80
2018-11-02T05:43:59.647Z,977.84
2018-11-02T05:44:59.672Z,977.85
2018-11-02T05:45:59.641Z,977.88
2018-11-02T05:46:59.667Z,977.89
2018-11-02T05:47:59.645Z,977.91
2018-11-02T05:48:59.630Z,977.89
2018-11-02T05:49:59.652Z,977.90
2018-11-02T05:50:59.622Z,977.90
2018-11-02T05:51:59.616Z,977.85
2018-11-02T05:52:59.613Z,977.91
2018-11-02T05:53:59.648Z,977.91
2018-11-02T05:54:59.627Z,977.92
2018-11-02T05:55:59.602Z,977.95
2018-11-02T05:56:59.596Z,977.97
2018-11-02T05:57:59.592Z,978.02
2018-11-02T05:58:59.583Z,978.03
2018-11-02T05:59:59.612Z,978.06
2018-11-02T06:00:59.583Z,978.11
2018-11-02T06:01:59.576Z,978.07
2018-11-02T06:02:59.571Z,978.06
2018-11-02T06:03:59.588Z,978.08
2018-11-02T06:04:59.593Z,978.12
2018-11-02T06:05:59.560Z,978.14
2018-11-02T06:06:59.555Z,978.19
2018-11-02T06:07:59.577Z,978.21
2018-11-02T06:08:59.604Z,978.24
2018-11-02T06:09:59.569Z,978.28
2018-11-02T06:10:59.536Z,978.31
2018-11-02T06:11:59.528Z,978.34
2018-11-02T06:12:59.532Z,978.35
2018-11-02T06:13:59.524Z,978.36
2018-11-02T06:14:59.547Z,978.41
2018-11-02T06:15:59.525Z,978.42
2018-11-02T06:16:59.657Z,978.44
2018-11-02T06:17:59.517Z,978.43
2018-11-02T06:18:59.508Z,978.41
2018-11-02T06:19:59.535Z,978.40
2018-11-02T06:20:59.495Z,978.40
2018-11-02T06:21:59.499Z,978.44
2018-11-02T06:22:59.491Z,978.43
2018-11-02T06:23:59.502Z,978.45
2018-11-02T06:24:59.508Z,978.50
2018-11-02T06:25:59.476Z,978.49
2018-11-02T06:26:59.473Z,978.56
2018-11-02T06:27:59.477Z,978.61
2018-11-02T06:29:01.609Z,978.62
2018-11-02T06:29:59.488Z,978.59
2018-11-02T06:30:59.456Z,978.61
2018-11-02T06:31:59.447Z,978.58
2018-11-02T06:32:59.552Z,978.59
2018-11-02T06:33:59.462Z,978.61
2018-11-02T06:34:59.445Z,978.70
2018-11-02T06:35:59.436Z,978.71
2018-11-02T06:36:59.437Z,978.74
2018-11-02T06:37:59.428Z,978.68
2018-11-02T06:38:59.627Z,978.70
2018-11-02T06:39:59.416Z,978.74
2018-11-02T06:40:59.413Z,978.70
2018-11-02T06:41:59.436Z,978.72
2018-11-02T06:42:59.404Z,978.70
2018-11-02T06:43:59.402Z,978.68
2018-11-02T06:44:59.517Z,978.75
2018-11-02T06:45:59.388Z,978.81
2018-11-02T06:46:59.392Z,978.87
2018-11-02T06:47:59.380Z,978.93
2018-11-02T06:48:59.380Z,978.99
2018-11-02T06:49:59.404Z,979.07
2018-11-02T06:50:59.398Z,979.12
2018-11-02T06:51:59.370Z,979.12
2018-11-02T06:52:59.364Z,979.14
2018-11-02T06:53:59.391Z,979.14
2018-11-02T06:54:59.362Z,979.15
2018-11-02T06:55:59.356Z,979.14
2018-11-02T06:56:59.355Z,979.17
2018-11-02T06:57:59.348Z,979.21
2018-11-02T06:58:59.432Z,979.20
2018-11-02T06:59:59.564Z,979.21
2018-11-02T07:00:59.336Z,979.18
2018-11-02T07:01:59.340Z,979.16
2018-11-02T07:02:59.328Z,979.21
2018-11-02T07:03:59.355Z,979.22
2018-11-02T07:04:59.323Z,979.21
2018-11-02T07:05:59.313Z,979.25
2018-11-02T07:06:59.377Z,979.28
2018-11-02T07:07:59.386Z,979.36
2018-11-02T07:08:59.339Z,979.34
2018-11-02T07:09:59.298Z,979.37
2018-11-02T07:10:59.299Z,979.42
2018-11-02T07:11:59.304Z,979.39
2018-11-02T07:12:59.294Z,979.39
2018-11-02T07:13:59.314Z,979.43
2018-11-02T07:14:59.282Z,979.52
2018-11-02T07:15:59.281Z,979.59
2018-11-02T07:16:59.277Z,979.65
2018-11-02T07:17:59.275Z,979.62
2018-11-02T07:18:59.300Z,979.70
2018-11-02T07:19:59.270Z,979.73
2018-11-02T07:20:59.264Z,979.72
2018-11-02T07:21:59.269Z,979.71
2018-11-02T07:22:59.272Z,979.76
2018-11-02T07:23:59.295Z,979.77
2018-11-02T07:24:59.283Z,979.85
2018-11-02T07:25:59.252Z,979.90
2018-11-02T07:26:59.245Z,979.89
2018-11-02T07:27:59.250Z,979.93
2018-11-02T07:28:59.272Z,979.96
2018-11-02T07:29:59.245Z,980.01
2018-11-02T07:30:59.245Z,980.00
2018-11-02T07:31:59.244Z,979.98
2018-11-02T07:32:59.233Z,980.04
2018-11-02T07:33:59.258Z,980.12
2018-11-02T07:34:59.240Z,980.17
2018-11-02T07:35:59.225Z,980.15
2018-11-02T07:36:59.229Z,980.03
2018-11-02T07:37:59.256Z,980.14
2018-11-02T07:38:59.224Z,980.07
2018-11-02T07:39:59.227Z,980.18
2018-11-02T07:40:59.225Z,980.20
2018-11-02T07:41:59.221Z,980.21
2018-11-02T07:42:59.254Z,980.22
2018-11-02T07:43:59.227Z,980.26
2018-11-02T07:44:59.212Z,980.32
2018-11-02T07:45:59.216Z,980.27
2018-11-02T07:46:59.218Z,980.29
2018-11-02T07:47:59.254Z,980.32
2018-11-02T07:48:59.214Z,980.26
2018-11-02T07:49:59.211Z,980.28
2018-11-02T07:50:59.214Z,980.25
2018-11-02T07:51:59.211Z,980.26
2018-11-02T07:52:59.284Z,980.31
2018-11-02T07:53:59.209Z,980.28
2018-11-02T07:54:59.216Z,980.34
2018-11-02T07:55:59.209Z,980.33
2018-11-02T07:56:59.208Z,980.29
2018-11-02T07:57:59.233Z,980.27
2018-11-02T07:58:59.213Z,980.41
2018-11-02T07:59:59.213Z,980.46
2018-11-02T08:00:59.208Z,980.48
2018-11-02T08:01:59.210Z,980.47
2018-11-02T08:02:59.233Z,980.60
2018-11-02T08:03:59.652Z,980.65
2018-11-02T08:04:59.209Z,980.65
2018-11-02T08:05:59.206Z,980.71
2018-11-02T08:06:59.207Z,980.73
2018-11-02T08:07:59.229Z,980.73
2018-11-02T08:08:59.209Z,980.82
2018-11-02T08:09:59.210Z,980.87
2018-11-02T08:10:59.213Z,980.96
2018-11-02T08:11:59.212Z,980.92
2018-11-02T08:12:59.251Z,980.89
2018-11-02T08:13:59.209Z,980.84
2018-11-02T08:14:59.213Z,980.87
2018-11-02T08:15:59.205Z,980.92
2018-11-02T08:16:59.209Z,980.93
2018-11-02T08:17:59.237Z,980.94
2018-11-02T08:18:59.225Z,981.00
2018-11-02T08:19:59.207Z,981.00
2018-11-02T08:20:59.208Z,980.97
2018-11-02T08:21:59.213Z,980.99
2018-11-02T08:22:59.245Z,980.97
2018-11-02T08:23:59.215Z,980.93
2018-11-02T08:24:59.214Z,980.92
2018-11-02T08:25:59.210Z,980.89
2018-11-02T08:26:59.214Z,980.87
2018-11-02T08:27:59.241Z,980.88
2018-11-02T08:28:59.236Z,980.93
2018-11-02T08:29:59.210Z,980.96
2018-11-02T08:30:59.209Z,980.96
2018-11-02T08:31:59.236Z,980.95
2018-11-02T08:32:59.237Z,980.93
2018-11-02T08:33:59.209Z,980.92
2018-11-02T08:34:59.210Z,980.94
2018-11-02T08:35:59.205Z,980.95
2018-11-02T08:36:59.205Z,980.94
2018-11-02T08:37:59.233Z,981.05
2018-11-02T08:38:59.206Z,981.05
2018-11-02T08:39:59.198Z,981.08
2018-11-02T08:40:59.202Z,981.07
2018-11-02T08:41:59.268Z,981.13
2018-11-02T08:42:59.228Z,981.17
2018-11-02T08:43:59.199Z,981.20
2018-11-02T08:44:59.201Z,981.16
2018-11-02T08:45:59.199Z,981.21
2018-11-02T08:46:59.193Z,981.22
2018-11-02T08:47:59.221Z,981.25
2018-11-02T08:48:59.196Z,981.26
2018-11-02T08:49:59.193Z,981.28
2018-11-02T08:50:59.193Z,981.32
2018-11-02T08:51:59.195Z,981.34
2018-11-02T08:52:59.222Z,981.39
2018-11-02T08:53:59.190Z,981.34
2018-11-02T08:54:59.190Z,981.38
2018-11-02T08:55:59.189Z,981.39
2018-11-02T08:56:59.190Z,981.36
2018-11-02T08:57:59.300Z,981.37
2018-11-02T08:58:59.221Z,981.37
2018-11-02T08:59:59.198Z,981.33
2018-11-02T09:00:59.324Z,981.30
2018-11-02T09:02:00.183Z,981.30
2018-11-02T09:03:01.120Z,981.26
2018-11-02T09:03:59.187Z,981.29
2018-11-02T09:04:59.257Z,981.35
2018-11-02T09:05:59.194Z,981.29
2018-11-02T09:06:59.190Z,981.28
2018-11-02T09:07:59.215Z,981.25
2018-11-02T09:08:59.187Z,981.30
2018-11-02T09:09:59.188Z,981.30
2018-11-02T09:10:59.193Z,981.34
2018-11-02T09:11:59.199Z,981.35
2018-11-02T09:12:59.215Z,981.38
2018-11-02T09:13:59.187Z,981.39
2018-11-02T09:14:59.195Z,981.43
2018-11-02T09:15:59.190Z,981.48
2018-11-02T09:16:59.191Z,981.45
2018-11-02T09:17:59.218Z,981.40
2018-11-02T09:18:59.274Z,981.35
2018-11-02T09:19:59.195Z,981.38
2018-11-02T09:20:59.190Z,981.32
2018-11-02T09:21:59.195Z,981.36
2018-11-02T09:22:59.227Z,981.39
2018-11-02T09:23:59.190Z,981.44
2018-11-02T09:24:59.197Z,981.54
2018-11-02T09:25:59.191Z,981.53
2018-11-02T09:26:59.256Z,981.50
2018-11-02T09:27:59.419Z,981.45
2018-11-02T09:28:59.308Z,981.44
2018-11-02T09:29:59.187Z,981.43
2018-11-02T09:30:59.196Z,981.42
2018-11-02T09:31:59.197Z,981.46
2018-11-02T09:32:59.224Z,981.47
2018-11-02T09:33:59.195Z,981.51
2018-11-02T09:34:59.191Z,981.57
2018-11-02T09:35:59.195Z,981.66
2018-11-02T09:36:59.195Z,981.71
2018-11-02T09:37:59.223Z,981.75
2018-11-02T09:38:59.203Z,981.72
2018-11-02T09:39:59.196Z,981.67
2018-11-02T09:40:59.196Z,981.66
2018-11-02T09:41:59.194Z,981.69
2018-11-02T09:42:59.220Z,981.64
2018-11-02T09:43:59.203Z,981.67
2018-11-02T09:44:59.205Z,981.62
2018-11-02T09:45:59.198Z,981.64
2018-11-02T09:46:59.210Z,981.61
2018-11-02T09:47:59.234Z,981.62
2018-11-02T09:48:59.204Z,981.64
2018-11-02T09:49:59.199Z,981.70
2018-11-02T09:50:59.201Z,981.73
2018-11-02T09:51:59.307Z,981.72
2018-11-02T09:52:59.203Z,981.71
2018-11-02T09:53:59.198Z,981.74
2018-11-02T09:54:59.200Z,981.68
2018-11-02T09:55:59.199Z,981.68
2018-11-02T09:56:59.228Z,981.70
2018-11-02T09:57:59.199Z,981.76
2018-11-02T09:58:59.219Z,981.74
2018-11-02T09:59:59.274Z,981.72
2018-11-02T10:00:59.316Z,981.74
2018-11-02T10:01:59.267Z,981.71
2018-11-02T10:02:59.224Z,981.76
2018-11-02T10:03:59.192Z,981.75
2018-11-02T10:04:59.190Z,981.77
2018-11-02T10:05:59.196Z,981.83
2018-11-02T10:06:59.230Z,981.83
2018-11-02T10:07:59.897Z,981.82
2018-11-02T10:08:59.248Z,981.85
2018-11-02T10:09:59.216Z,981.85
2018-11-02T10:10:59.192Z,981.83
2018-11-02T10:11:59.220Z,981.84
2018-11-02T10:12:59.192Z,981.87
2018-11-02T10:13:59.188Z,981.84
2018-11-02T10:14:59.221Z,981.83
2018-11-02T10:15:59.198Z,981.77
2018-11-02T10:16:59.184Z,981.78
2018-11-02T10:17:59.224Z,981.78
2018-11-02T10:18:59.189Z,981.76
2018-11-02T10:19:59.184Z,981.75
2018-11-02T10:20:59.185Z,981.72
2018-11-02T10:21:59.183Z,981.76
2018-11-02T10:22:59.313Z,981.72
2018-11-02T10:23:59.275Z,981.73
2018-11-02T10:24:59.807Z,981.72
2018-11-02T10:25:59.173Z,981.67
2018-11-02T10:26:59.181Z,981.63
2018-11-02T10:27:59.410Z,981.65
2018-11-02T10:28:59.188Z,981.65
2018-11-02T10:29:59.187Z,981.67
2018-11-02T10:30:59.180Z,981.68
2018-11-02T10:31:59.212Z,981.69
2018-11-02T10:32:59.188Z,981.68
2018-11-02T10:34:00.127Z,981.72
2018-11-02T10:34:59.181Z,981.69
2018-11-02T10:35:59.225Z,981.68
2018-11-02T10:36:59.213Z,981.73
2018-11-02T10:37:59.187Z,981.71
2018-11-02T10:38:59.194Z,981.77
2018-11-02T10:40:04.375Z,981.77
2018-11-02T10:41:03.128Z,981.82
2018-11-02T10:42:00.801Z,981.85
2018-11-02T10:42:59.185Z,981.83
2018-11-02T10:43:59.183Z,981.84
2018-11-02T10:44:59.216Z,981.82
2018-11-02T10:45:59.190Z,981.80
2018-11-02T10:46:59.220Z,981.87
2018-11-02T10:47:59.183Z,981.87
2018-11-02T10:48:59.185Z,981.88
2018-11-02T10:49:59.186Z,981.92
2018-11-02T10:50:59.189Z,981.97
2018-11-02T10:51:59.211Z,982.34
2018-11-02T10:52:59.182Z,982.16
2018-11-02T10:53:59.185Z,982.21
2018-11-02T10:54:59.192Z,982.43
2018-11-02T10:56:01.797Z,982.18
2018-11-02T10:57:01.807Z,982.07
2018-11-02T10:58:02.145Z,982.07
2018-11-02T10:58:59.206Z,982.14
2018-11-02T10:59:59.199Z,982.25
2018-11-02T11:00:59.316Z,982.23
2018-11-02T11:01:59.208Z,982.11
2018-11-02T11:02:59.241Z,982.18
2018-11-02T11:03:59.216Z,982.23
2018-11-02T11:04:59.217Z,982.14
2018-11-02T11:05:59.222Z,982.12
2018-11-02T11:06:59.249Z,982.28
2018-11-02T11:07:59.229Z,982.28
2018-11-02T11:08:59.233Z,982.43
2018-11-02T11:09:59.238Z,982.37
2018-11-02T11:10:59.244Z,982.49
2018-11-02T11:11:59.372Z,982.54
2018-11-02T11:12:59.537Z,982.59
2018-11-02T11:13:59.260Z,982.51
2018-11-02T11:14:59.268Z,982.44
2018-11-02T11:15:59.301Z,982.55
2018-11-02T11:16:59.282Z,982.49
2018-11-02T11:17:59.315Z,982.47
2018-11-02T11:18:59.295Z,982.53
2018-11-02T11:19:59.304Z,982.49
2018-11-02T11:20:59.336Z,982.52
2018-11-02T11:21:59.351Z,982.47
2018-11-02T11:22:59.334Z,982.28
2018-11-02T11:23:59.344Z,982.17
2018-11-02T11:24:59.350Z,982.34
2018-11-02T11:25:59.366Z,982.37
2018-11-02T11:26:59.400Z,982.35
2018-11-02T11:27:59.382Z,982.32
2018-11-02T11:28:59.437Z,982.37
2018-11-02T11:29:59.408Z,982.36
2018-11-02T11:30:59.420Z,982.39
2018-11-02T11:31:59.461Z,982.39
2018-11-02T11:32:59.439Z,982.39
2018-11-02T11:33:59.449Z,982.41
2018-11-02T11:34:59.473Z,982.32
2018-11-02T11:35:59.509Z,982.27
2018-11-02T11:36:59.492Z,982.29
2018-11-02T11:37:59.564Z,982.31
2018-11-02T11:38:59.515Z,982.31
2018-11-02T11:39:59.533Z,982.32
2018-11-02T11:40:59.544Z,982.40
2018-11-02T11:41:59.584Z,982.37
2018-11-02T11:42:59.567Z,982.41
2018-11-02T11:43:59.587Z,982.36
2018-11-02T11:44:59.596Z,982.33
2018-11-02T11:45:59.608Z,982.31
2018-11-02T11:46:59.649Z,982.26
2018-11-02T11:47:59.637Z,982.23
2018-11-02T11:48:59.789Z,982.26
2018-11-02T11:49:59.660Z,982.24
2018-11-02T11:50:59.677Z,982.30
2018-11-02T11:51:59.717Z,982.31
2018-11-02T11:52:59.707Z,982.35
2018-11-02T11:53:59.717Z,982.40
2018-11-02T11:54:59.733Z,982.44
2018-11-02T11:55:59.744Z,982.43
2018-11-02T11:56:59.781Z,982.44
2018-11-02T11:57:59.767Z,982.43
2018-11-02T11:58:59.784Z,982.43
2018-11-02T11:59:59.794Z,982.37
2018-11-02T12:00:59.801Z,982.39
2018-11-02T12:01:59.849Z,982.34
2018-11-02T12:02:59.835Z,982.33
2018-11-02T12:03:59.847Z,982.31
2018-11-02T12:04:59.934Z,982.28
2018-11-02T12:05:59.872Z,982.25
2018-11-02T12:06:59.922Z,982.23
2018-11-02T12:07:59.897Z,982.21
2018-11-02T12:08:59.914Z,982.22
2018-11-02T12:09:59.933Z,982.19
2018-11-02T12:10:59.941Z,982.18
2018-11-02T12:11:59.989Z,982.16
2018-11-02T12:12:59.971Z,982.12
2018-11-02T12:13:59.978Z,982.15
2018-11-02T12:14:59.996Z,982.15
2018-11-02T12:16:00.111Z,982.16
2018-11-02T12:17:00.050Z,982.18
2018-11-02T12:18:00.062Z,982.21
2018-11-02T12:19:00.074Z,982.21
2018-11-02T12:20:00.063Z,982.22
2018-11-02T12:21:00.080Z,982.19
2018-11-02T12:22:00.136Z,982.16
2018-11-02T12:23:00.137Z,982.21
2018-11-02T12:24:00.118Z,982.16
2018-11-02T12:25:00.131Z,982.22
2018-11-02T12:26:00.143Z,982.19
2018-11-02T12:27:00.192Z,982.23
2018-11-02T12:28:00.225Z,982.25